createdAt,value
2019-03-10T00:01:29.191Z,10.10
2019-03-10T00:03:57.645Z,11.77
2019-03-10T00:06:26.086Z,11.97
2019-03-10T00:08:54.483Z,12.67
2019-03-10T00:11:22.874Z,9.57
2019-03-10T00:13:51.258Z,8.77
2019-03-10T00:16:19.657Z,8.73
2019-03-10T00:18:49.240Z,12.37
2019-03-10T00:21:17.624Z,10.53
2019-03-10T00:23:46.397Z,9.97
2019-03-10T00:26:14.785Z,8.27
2019-03-10T00:28:43.177Z,9.60
2019-03-10T00:31:11.569Z,8.00
2019-03-10T00:33:40.028Z,8.67
2019-03-10T00:36:08.411Z,7.93
2019-03-10T00:38:40.162Z,8.93
2019-03-10T00:41:23.396Z,8.37
2019-03-10T00:44:14.819Z,6.37
2019-03-10T00:46:58.354Z,7.50
2019-03-10T00:49:49.246Z,6.37
2019-03-10T00:52:23.467Z,7.93
2019-03-10T00:54:51.855Z,6.53
2019-03-10T00:57:20.291Z,6.20
2019-03-10T00:59:48.681Z,6.90
2019-03-10T01:02:17.074Z,6.87
2019-03-10T01:04:45.503Z,5.57
2019-03-10T01:07:13.894Z,11.97
2019-03-10T01:09:42.290Z,11.73
2019-03-10T01:12:10.680Z,7.37
2019-03-10T01:14:39.067Z,8.30
2019-03-10T01:17:07.460Z,7.20
2019-03-10T01:19:35.851Z,6.97
2019-03-10T01:22:04.247Z,12.97
2019-03-10T01:24:32.630Z,8.33
2019-03-10T01:27:01.022Z,7.60
2019-03-10T01:29:29.420Z,7.10
2019-03-10T01:32:03.680Z,5.77
2019-03-10T01:34:59.785Z,7.80
2019-03-10T01:37:28.177Z,8.00
2019-03-10T01:39:56.593Z,8.80
2019-03-10T01:42:24.987Z,7.13
2019-03-10T01:44:53.393Z,7.43
2019-03-10T01:47:21.785Z,7.23
2019-03-10T01:49:50.212Z,7.63
2019-03-10T01:52:18.587Z,6.73
2019-03-10T01:54:46.994Z,9.13
2019-03-10T01:57:15.380Z,7.57
2019-03-10T01:59:43.793Z,7.00
2019-03-10T02:02:12.244Z,7.30
2019-03-10T02:04:41.880Z,7.07
2019-03-10T02:07:10.278Z,6.57
2019-03-10T02:09:38.704Z,7.17
2019-03-10T02:12:07.168Z,6.80
2019-03-10T02:14:35.579Z,7.20
2019-03-10T02:17:04.137Z,9.63
2019-03-10T02:19:32.633Z,6.60
2019-03-10T02:22:01.088Z,7.87
2019-03-10T02:24:29.500Z,7.20
2019-03-10T02:26:57.898Z,8.47
2019-03-10T02:29:26.318Z,7.00
2019-03-10T02:31:54.697Z,6.27
2019-03-10T02:34:23.122Z,8.47
2019-03-10T02:36:51.516Z,8.17
2019-03-10T02:39:19.944Z,8.37
2019-03-10T02:41:48.330Z,6.50
2019-03-10T02:44:16.772Z,8.13
2019-03-10T02:46:45.154Z,7.57
2019-03-10T02:49:13.579Z,7.77
2019-03-10T02:51:42.066Z,9.00
2019-03-10T02:54:10.452Z,7.23
2019-03-10T02:56:38.838Z,6.80
2019-03-10T02:59:07.232Z,9.67
2019-03-10T03:01:35.633Z,8.83
2019-03-10T03:04:04.045Z,7.93
2019-03-10T03:06:32.434Z,7.63
2019-03-10T03:09:00.827Z,7.57
2019-03-10T03:11:29.267Z,7.17
2019-03-10T03:13:57.704Z,6.73
2019-03-10T03:16:26.164Z,6.33
2019-03-10T03:18:54.551Z,8.80
2019-03-10T03:21:23.025Z,6.20
2019-03-10T03:23:51.416Z,6.67
2019-03-10T03:26:19.789Z,7.00
2019-03-10T03:28:48.179Z,6.80
2019-03-10T03:31:16.597Z,6.03
2019-03-10T03:33:45.041Z,5.70
2019-03-10T03:36:16.692Z,5.57
2019-03-10T03:38:48.585Z,6.93
2019-03-10T03:41:24.830Z,7.83
2019-03-10T03:43:53.208Z,6.63
2019-03-10T03:46:21.603Z,6.60
2019-03-10T03:48:50.178Z,7.67
2019-03-10T03:51:18.602Z,6.00
2019-03-10T03:53:46.989Z,6.53
2019-03-10T03:56:15.378Z,6.00
2019-03-10T03:58:43.764Z,5.77
2019-03-10T04:01:16.806Z,5.63
2019-03-10T04:03:45.200Z,5.23
2019-03-10T04:06:13.586Z,5.77
2019-03-10T04:08:42.061Z,5.43
2019-03-10T04:11:10.455Z,6.07
2019-03-10T04:13:38.849Z,5.37
2019-03-10T04:16:07.345Z,5.83
2019-03-10T04:18:35.729Z,5.30
2019-03-10T04:21:04.249Z,5.90
2019-03-10T04:23:32.615Z,6.53
2019-03-10T04:26:01.029Z,5.83
2019-03-10T04:28:29.419Z,5.43
2019-03-10T04:30:57.823Z,5.30
2019-03-10T04:33:26.215Z,7.10
2019-03-10T04:35:54.640Z,5.30
2019-03-10T04:38:23.030Z,4.83
2019-03-10T04:40:51.445Z,5.90
2019-03-10T04:43:19.842Z,4.73
2019-03-10T04:45:48.277Z,5.97
2019-03-10T04:48:16.654Z,4.83
2019-03-10T04:50:45.080Z,4.60
2019-03-10T04:53:13.503Z,4.87
2019-03-10T04:55:49.366Z,4.00
2019-03-10T04:58:18.616Z,4.77
2019-03-10T05:00:48.687Z,4.63
2019-03-10T05:03:17.081Z,4.60
2019-03-10T05:05:45.506Z,5.13
2019-03-10T05:08:13.900Z,4.93
2019-03-10T05:10:42.320Z,4.20
2019-03-10T05:13:10.711Z,4.77
2019-03-10T05:15:39.143Z,3.43
2019-03-10T05:18:07.539Z,3.90
2019-03-10T05:20:35.965Z,3.63
2019-03-10T05:23:29.818Z,3.73
2019-03-10T05:25:58.470Z,4.53
2019-03-10T05:28:27.606Z,4.20
2019-03-10T05:30:55.997Z,3.43
2019-03-10T05:33:24.393Z,3.67
2019-03-10T05:35:52.788Z,4.13
2019-03-10T05:38:21.167Z,3.33
2019-03-10T05:40:49.579Z,4.27
2019-03-10T05:43:17.966Z,3.37
2019-03-10T05:45:46.410Z,3.30
2019-03-10T05:48:14.797Z,4.33
2019-03-10T05:50:43.230Z,3.40
2019-03-10T05:53:11.642Z,4.23
2019-03-10T05:55:40.068Z,2.70
2019-03-10T05:58:08.493Z,3.63
2019-03-10T06:00:42.533Z,3.17
2019-03-10T06:03:07.098Z,3.47
2019-03-10T06:05:35.527Z,2.73
2019-03-10T06:08:03.912Z,3.60
2019-03-10T06:10:32.359Z,4.23
2019-03-10T06:13:00.751Z,3.67
2019-03-10T06:15:29.243Z,2.73
2019-03-10T06:17:57.630Z,2.70
2019-03-10T06:20:26.021Z,3.23
2019-03-10T06:22:54.409Z,2.87
2019-03-10T06:25:22.801Z,3.10
2019-03-10T06:27:51.197Z,2.73
2019-03-10T06:30:19.583Z,3.20
2019-03-10T06:32:47.970Z,2.83
2019-03-10T06:35:16.357Z,3.27
2019-03-10T06:37:44.796Z,3.93
2019-03-10T06:40:13.147Z,5.63
2019-03-10T06:42:41.541Z,3.77
2019-03-10T06:45:09.928Z,7.93
2019-03-10T06:47:38.309Z,2.33
2019-03-10T06:50:12.100Z,3.00
2019-03-10T06:52:39.756Z,3.10
2019-03-10T06:55:08.279Z,2.20
2019-03-10T06:57:36.798Z,3.27
2019-03-10T07:00:10.873Z,4.80
2019-03-10T07:02:39.285Z,2.03
2019-03-10T07:05:10.370Z,3.63
2019-03-10T07:07:38.832Z,2.70
2019-03-10T07:10:12.006Z,6.20
2019-03-10T07:12:40.412Z,2.70
2019-03-10T07:15:10.648Z,2.50
2019-03-10T07:17:39.082Z,3.10
2019-03-10T07:20:16.399Z,2.10
2019-03-10T07:22:44.826Z,3.17
2019-03-10T07:25:13.220Z,2.63
2019-03-10T07:27:43.268Z,2.77
2019-03-10T07:30:31.469Z,2.60
2019-03-10T07:33:16.492Z,3.23
2019-03-10T07:35:46.533Z,1.60
2019-03-10T07:38:22.312Z,3.13
2019-03-10T07:40:52.342Z,3.47
2019-03-10T07:43:22.381Z,4.83
2019-03-10T07:46:10.518Z,2.43
2019-03-10T07:48:56.879Z,3.33
2019-03-10T07:51:29.658Z,4.43
2019-03-10T07:54:05.728Z,3.47
2019-03-10T07:56:35.833Z,8.27
2019-03-10T07:59:17.721Z,11.87
2019-03-10T08:01:56.747Z,14.17
2019-03-10T08:04:26.815Z,23.43
2019-03-10T08:07:00.195Z,28.57
2019-03-10T08:09:48.318Z,27.67
2019-03-10T08:12:21.318Z,38.70
2019-03-10T08:14:51.452Z,39.10
2019-03-10T08:17:21.490Z,40.00
2019-03-10T08:20:00.393Z,40.17
2019-03-10T08:22:46.658Z,42.83
2019-03-10T08:25:16.759Z,40.00
2019-03-10T08:28:02.211Z,47.63
2019-03-10T08:30:35.394Z,44.67
2019-03-10T08:33:21.544Z,42.60
2019-03-10T08:35:51.579Z,44.90
2019-03-10T08:38:30.738Z,42.50
2019-03-10T08:41:17.000Z,42.40
2019-03-10T08:43:47.041Z,43.40
2019-03-10T08:46:22.581Z,42.00
2019-03-10T08:48:52.622Z,39.83
2019-03-10T08:51:25.388Z,37.53
2019-03-10T08:53:55.423Z,35.80
2019-03-10T08:56:37.209Z,37.57
2019-03-10T08:59:07.246Z,36.27
2019-03-10T09:01:40.267Z,32.27
2019-03-10T09:04:15.819Z,29.03
2019-03-10T09:06:51.608Z,32.67
2019-03-10T09:09:38.001Z,32.30
2019-03-10T09:12:13.651Z,30.20
2019-03-10T09:15:01.880Z,27.90
2019-03-10T09:17:37.904Z,29.50
2019-03-10T09:20:11.489Z,28.03
2019-03-10T09:22:44.245Z,24.13
2019-03-10T09:25:31.023Z,25.47
2019-03-10T09:28:03.761Z,24.97
2019-03-10T09:30:33.805Z,26.07
2019-03-10T09:33:12.992Z,15.67
2019-03-10T09:35:43.062Z,25.23
2019-03-10T09:38:13.108Z,21.90
2019-03-10T09:40:45.624Z,22.00
2019-03-10T09:43:21.391Z,22.33
2019-03-10T09:45:57.171Z,20.30
2019-03-10T09:48:42.376Z,21.37
2019-03-10T09:51:12.457Z,19.00
2019-03-10T09:53:51.241Z,18.40
2019-03-10T09:56:27.015Z,19.93
2019-03-10T09:58:59.509Z,20.70
2019-03-10T10:01:35.125Z,16.23
2019-03-10T10:04:11.234Z,17.67
2019-03-10T10:06:41.279Z,17.17
2019-03-10T10:09:11.320Z,16.73
2019-03-10T10:11:47.204Z,16.10
2019-03-10T10:14:17.248Z,18.00
2019-03-10T10:16:49.991Z,21.00
2019-03-10T10:19:20.023Z,16.40
2019-03-10T10:21:50.065Z,16.30
2019-03-10T10:24:23.130Z,16.97
2019-03-10T10:26:53.173Z,14.80
2019-03-10T10:29:28.762Z,15.43
2019-03-10T10:32:07.799Z,14.17
2019-03-10T10:34:54.300Z,14.80
2019-03-10T10:37:24.336Z,15.97
2019-03-10T10:40:00.236Z,15.27
2019-03-10T10:42:36.498Z,12.73
2019-03-10T10:45:07.713Z,17.67
2019-03-10T10:47:40.431Z,11.93
2019-03-10T10:50:13.750Z,11.93
2019-03-10T10:52:43.808Z,13.87
2019-03-10T10:55:16.863Z,13.70
2019-03-10T10:57:49.383Z,13.60
2019-03-10T11:00:22.376Z,11.63
2019-03-10T11:03:08.728Z,11.30
2019-03-10T11:05:41.250Z,12.47
2019-03-10T11:08:23.305Z,11.97
2019-03-10T11:10:53.336Z,24.87
2019-03-10T11:13:32.157Z,26.97
2019-03-10T11:16:02.189Z,18.53
2019-03-10T11:18:41.424Z,19.97
2019-03-10T11:21:11.464Z,20.47
2019-03-10T11:23:47.906Z,17.43
2019-03-10T11:26:17.936Z,14.43
2019-03-10T11:29:04.280Z,17.00
2019-03-10T11:31:34.412Z,15.97
2019-03-10T11:34:04.636Z,12.90
2019-03-10T11:36:50.982Z,11.70
2019-03-10T11:39:23.692Z,13.00
2019-03-10T11:42:10.159Z,13.03
2019-03-10T11:44:56.119Z,11.90
2019-03-10T11:47:26.157Z,11.50
2019-03-10T11:50:08.583Z,11.23
2019-03-10T11:52:38.613Z,10.97
2019-03-10T11:55:09.863Z,9.63
2019-03-10T11:57:40.694Z,9.37
2019-03-10T12:00:18.553Z,7.47
2019-03-10T12:02:54.458Z,10.47
2019-03-10T12:05:27.366Z,9.23
2019-03-10T12:08:12.612Z,7.63
2019-03-10T12:10:41.044Z,11.43
2019-03-10T12:13:09.437Z,9.97
2019-03-10T12:15:37.853Z,10.53
2019-03-10T12:18:07.541Z,8.40
2019-03-10T12:20:35.950Z,8.57
2019-03-10T12:23:04.631Z,9.17
2019-03-10T12:25:33.076Z,9.73
2019-03-10T12:28:01.471Z,11.20
2019-03-10T12:30:29.958Z,9.03
2019-03-10T12:32:58.385Z,38.60
2019-03-10T12:35:34.470Z,14.67
2019-03-10T12:37:56.935Z,13.33
2019-03-10T12:40:25.361Z,11.80
2019-03-10T12:42:53.749Z,11.43
2019-03-10T12:45:22.224Z,10.83
2019-03-10T12:47:50.615Z,10.77
2019-03-10T12:50:19.069Z,11.77
2019-03-10T12:52:47.525Z,8.60
2019-03-10T12:55:15.946Z,8.57
2019-03-10T12:57:44.343Z,10.07
2019-03-10T13:00:15.450Z,8.73
2019-03-10T13:02:43.849Z,9.53
2019-03-10T13:05:12.325Z,7.93
2019-03-10T13:07:40.757Z,9.37
2019-03-10T13:10:12.604Z,9.00
2019-03-10T13:12:41.145Z,10.33
2019-03-10T13:15:14.147Z,7.83
2019-03-10T13:17:42.539Z,8.77
2019-03-10T13:20:11.965Z,5.73
2019-03-10T13:22:40.439Z,7.47
2019-03-10T13:25:13.076Z,9.23
2019-03-10T13:27:41.528Z,5.47
2019-03-10T13:30:12.163Z,5.97
2019-03-10T13:32:40.542Z,6.80
2019-03-10T13:35:09.083Z,6.03
2019-03-10T13:37:37.475Z,5.33
2019-03-10T13:40:08.462Z,5.53
2019-03-10T13:42:36.896Z,5.70
2019-03-10T13:45:08.653Z,4.00
2019-03-10T13:47:37.044Z,5.07
2019-03-10T13:50:08.933Z,5.40
2019-03-10T13:52:37.351Z,4.90
2019-03-10T13:55:07.259Z,4.03
2019-03-10T13:57:35.663Z,4.37
2019-03-10T14:00:16.281Z,5.17
2019-03-10T14:02:44.682Z,4.27
2019-03-10T14:05:13.093Z,4.57
2019-03-10T14:07:41.469Z,4.33
2019-03-10T14:10:11.107Z,4.37
2019-03-10T14:12:39.511Z,4.37
2019-03-10T14:15:18.050Z,6.87
2019-03-10T14:17:46.446Z,11.23
2019-03-10T14:20:15.781Z,5.63
2019-03-10T14:22:44.189Z,10.20
2019-03-10T14:25:14.116Z,8.23
2019-03-10T14:27:42.551Z,3.73
2019-03-10T14:30:16.168Z,15.73
2019-03-10T14:32:44.626Z,12.03
2019-03-10T14:35:13.033Z,8.03
2019-03-10T14:37:41.464Z,10.73
2019-03-10T14:40:17.575Z,7.20
2019-03-10T14:42:45.993Z,4.50
2019-03-10T14:45:16.221Z,5.80
2019-03-10T14:47:44.609Z,7.10
2019-03-10T14:50:15.480Z,5.80
2019-03-10T14:52:43.869Z,4.10
2019-03-10T14:55:15.521Z,4.03
2019-03-10T14:57:44.088Z,6.63
2019-03-10T15:00:23.624Z,4.87
2019-03-10T15:02:52.091Z,5.57
2019-03-10T15:05:20.494Z,3.37
2019-03-10T15:07:48.901Z,5.00
2019-03-10T15:10:17.292Z,2.97
2019-03-10T15:12:45.687Z,2.90
2019-03-10T15:15:22.360Z,2.30
2019-03-10T15:17:46.728Z,3.83
2019-03-10T15:20:16.047Z,2.30
2019-03-10T15:22:44.446Z,3.17
2019-03-10T15:25:19.566Z,3.20
2019-03-10T15:27:47.971Z,3.67
2019-03-10T15:30:22.152Z,2.40
2019-03-10T15:32:50.545Z,1.83
2019-03-10T15:35:18.937Z,2.57
2019-03-10T15:37:47.315Z,2.20
2019-03-10T15:40:19.363Z,2.80
2019-03-10T15:42:47.748Z,2.37
2019-03-10T15:45:17.201Z,2.13
2019-03-10T15:47:45.692Z,3.80
2019-03-10T15:50:23.466Z,2.33
2019-03-10T15:52:51.896Z,2.50
2019-03-10T15:55:20.331Z,1.57
2019-03-10T15:57:50.407Z,3.53
2019-03-10T16:00:20.737Z,4.57
2019-03-10T16:02:49.208Z,3.40
2019-03-10T16:05:17.680Z,2.10
2019-03-10T16:07:46.136Z,2.50
2019-03-10T16:10:15.170Z,2.07
2019-03-10T16:12:43.596Z,2.50
2019-03-10T16:15:28.624Z,4.03
2019-03-10T16:17:59.700Z,1.90
2019-03-10T16:20:28.211Z,2.30
2019-03-10T16:22:56.588Z,2.10
2019-03-10T16:25:25.040Z,2.47
2019-03-10T16:27:53.461Z,2.77
2019-03-10T16:30:24.051Z,2.70
2019-03-10T16:32:52.479Z,1.87
2019-03-10T16:35:22.303Z,1.90
2019-03-10T16:37:50.953Z,2.50
2019-03-10T16:40:20.286Z,1.50
2019-03-10T16:42:48.744Z,3.47
2019-03-10T16:45:24.624Z,1.87
2019-03-10T16:47:53.016Z,1.73
2019-03-10T16:50:22.737Z,2.87
2019-03-10T16:52:51.130Z,3.63
2019-03-10T16:55:19.522Z,2.30
2019-03-10T16:57:47.911Z,2.70
2019-03-10T17:00:17.341Z,1.70
2019-03-10T17:02:45.741Z,3.77
2019-03-10T17:05:17.428Z,1.73
2019-03-10T17:07:45.852Z,2.13
2019-03-10T17:10:22.803Z,2.37
2019-03-10T17:12:51.246Z,2.00
2019-03-10T17:15:23.436Z,2.20
2019-03-10T17:17:51.957Z,1.93
2019-03-10T17:20:20.507Z,3.10
2019-03-10T17:22:48.928Z,2.33
2019-03-10T17:25:17.776Z,2.43
2019-03-10T17:27:46.285Z,3.40
2019-03-10T17:30:23.946Z,1.53
2019-03-10T17:32:52.471Z,2.23
2019-03-10T17:35:21.411Z,1.50
2019-03-10T17:37:49.846Z,1.87
2019-03-10T17:40:22.598Z,3.13
2019-03-10T17:42:51.091Z,2.47
2019-03-10T17:45:20.327Z,2.80
2019-03-10T17:47:48.774Z,3.27
2019-03-10T17:50:17.990Z,2.30
2019-03-10T17:52:46.662Z,2.00
2019-03-10T17:55:20.143Z,2.07
2019-03-10T17:57:48.642Z,1.87
2019-03-10T18:00:19.624Z,2.07
2019-03-10T18:02:48.042Z,1.97
2019-03-10T18:05:16.499Z,3.50
2019-03-10T18:07:44.926Z,2.20
2019-03-10T18:10:14.968Z,2.80
2019-03-10T18:12:43.403Z,2.23
2019-03-10T18:15:13.346Z,1.90
2019-03-10T18:17:41.885Z,2.83
2019-03-10T18:20:17.680Z,2.27
2019-03-10T18:22:46.480Z,2.57
2019-03-10T18:25:15.848Z,2.27
2019-03-10T18:27:44.241Z,2.47
2019-03-10T18:30:19.879Z,2.43
2019-03-10T18:32:48.286Z,2.50
2019-03-10T18:35:16.754Z,2.40
2019-03-10T18:37:45.224Z,2.97
2019-03-10T18:40:16.250Z,2.47
2019-03-10T18:42:44.744Z,2.47
2019-03-10T18:45:15.548Z,2.50
2019-03-10T18:47:43.757Z,2.20
2019-03-10T18:50:14.602Z,2.67
2019-03-10T18:52:43.022Z,2.57
2019-03-10T18:55:12.946Z,2.40
2019-03-10T18:57:41.401Z,3.87
2019-03-10T19:00:16.308Z,2.93
2019-03-10T19:02:44.755Z,2.93
2019-03-10T19:05:13.157Z,3.20
2019-03-10T19:07:41.546Z,2.40
2019-03-10T19:10:12.106Z,2.23
2019-03-10T19:12:40.518Z,2.37
2019-03-10T19:15:16.742Z,2.00
2019-03-10T19:17:45.125Z,3.23
2019-03-10T19:20:14.758Z,2.43
2019-03-10T19:22:43.318Z,2.40
2019-03-10T19:25:13.350Z,2.60
2019-03-10T19:27:41.840Z,3.03
2019-03-10T19:30:18.451Z,4.60
2019-03-10T19:32:46.901Z,2.73
2019-03-10T19:35:15.316Z,3.53
2019-03-10T19:37:43.709Z,6.10
2019-03-10T19:40:17.061Z,6.83
2019-03-10T19:42:45.540Z,13.53
2019-03-10T19:45:19.791Z,25.20
2019-03-10T19:47:48.252Z,46.77
2019-03-10T19:50:27.096Z,76.27
2019-03-10T19:52:54.778Z,91.50
2019-03-10T19:55:23.256Z,106.33
2019-03-10T19:57:51.650Z,130.47
2019-03-10T20:00:20.923Z,126.30
2019-03-10T20:02:49.337Z,138.43
2019-03-10T20:05:17.786Z,149.97
2019-03-10T20:07:46.254Z,148.30
2019-03-10T20:10:25.538Z,152.60
2019-03-10T20:12:53.937Z,166.87
2019-03-10T20:15:24.620Z,166.77
2019-03-10T20:17:53.095Z,164.07
2019-03-10T20:20:26.848Z,156.10
2019-03-10T20:22:55.091Z,153.50
2019-03-10T20:25:23.492Z,159.83
2019-03-10T20:27:51.897Z,174.20
2019-03-10T20:30:21.542Z,153.97
2019-03-10T20:32:49.982Z,145.80
2019-03-10T20:35:18.412Z,143.07
2019-03-10T20:37:46.874Z,132.37
2019-03-10T20:40:20.000Z,135.33
2019-03-10T20:42:48.439Z,128.60
2019-03-10T20:45:16.927Z,161.77
2019-03-10T20:47:45.344Z,116.77
2019-03-10T20:50:17.731Z,96.40
2019-03-10T20:52:46.198Z,78.03
2019-03-10T20:55:15.236Z,62.07
2019-03-10T20:57:44.074Z,56.20
2019-03-10T21:00:17.143Z,53.87
2019-03-10T21:02:45.554Z,45.80
2019-03-10T21:05:13.957Z,42.57
2019-03-10T21:07:42.371Z,45.20
2019-03-10T21:10:19.648Z,36.97
2019-03-10T21:12:48.046Z,30.30
2019-03-10T21:15:21.494Z,27.53
2019-03-10T21:17:51.536Z,29.07
2019-03-10T21:20:24.015Z,25.60
2019-03-10T21:22:52.422Z,21.00
2019-03-10T21:25:26.033Z,21.60
2019-03-10T21:27:54.441Z,20.47
2019-03-10T21:30:28.227Z,19.97
2019-03-10T21:32:56.615Z,16.20
2019-03-10T21:35:25.031Z,18.07
2019-03-10T21:37:53.424Z,16.63
2019-03-10T21:40:26.613Z,15.20
2019-03-10T21:42:55.047Z,13.33
2019-03-10T21:45:23.478Z,13.50
2019-03-10T21:47:51.887Z,14.03
2019-03-10T21:50:20.628Z,13.00
2019-03-10T21:52:49.024Z,11.43
2019-03-10T21:55:18.147Z,11.93
2019-03-10T21:57:46.556Z,11.33
2019-03-10T22:00:16.495Z,9.53
2019-03-10T22:02:44.884Z,8.90
2019-03-10T22:05:15.311Z,9.13
2019-03-10T22:07:43.835Z,7.17
2019-03-10T22:10:25.757Z,6.27
2019-03-10T22:12:44.187Z,7.70
2019-03-10T22:15:14.122Z,7.27
2019-03-10T22:17:42.594Z,5.90
2019-03-10T22:20:16.347Z,5.37
2019-03-10T22:22:49.204Z,7.37
2019-03-10T22:25:15.044Z,5.10
2019-03-10T22:27:45.728Z,5.10
2019-03-10T22:30:18.661Z,6.57
2019-03-10T22:32:47.047Z,3.97
2019-03-10T22:35:15.462Z,4.20
2019-03-10T22:37:43.843Z,3.77
2019-03-10T22:40:13.988Z,4.33
2019-03-10T22:42:42.373Z,3.57
2019-03-10T22:45:18.564Z,3.90
2019-03-10T22:47:46.959Z,4.97
2019-03-10T22:50:16.030Z,2.73
2019-03-10T22:52:44.571Z,3.63
2019-03-10T22:55:13.937Z,3.23
2019-03-10T22:57:42.351Z,2.27
2019-03-10T23:00:19.624Z,2.83
2019-03-10T23:02:48.014Z,3.30
2019-03-10T23:05:16.547Z,2.63
2019-03-10T23:07:44.925Z,3.63
2019-03-10T23:10:14.518Z,3.30
2019-03-10T23:12:42.892Z,2.90
2019-03-10T23:15:12.718Z,2.33
2019-03-10T23:17:41.135Z,2.10
2019-03-10T23:20:14.322Z,1.80
2019-03-10T23:22:42.703Z,2.97
2019-03-10T23:25:11.121Z,1.87
2019-03-10T23:27:39.502Z,8.63
2019-03-10T23:30:11.425Z,3.10
2019-03-10T23:32:39.818Z,1.80
2019-03-10T23:35:08.404Z,2.17
2019-03-10T23:37:36.788Z,2.80
2019-03-10T23:40:08.712Z,2.17
2019-03-10T23:42:37.100Z,1.57
2019-03-10T23:45:07.869Z,2.17
2019-03-10T23:47:36.256Z,1.70
2019-03-10T23:50:05.929Z,5.23
2019-03-10T23:52:34.319Z,1.20
2019-03-10T23:55:02.744Z,1.20
2019-03-10T23:57:31.202Z,1.50
2019-03-10T23:59:59.632Z,1.80
